createdAt,value
2023-11-25T00:02:23.764Z,98889.55
2023-11-25T00:06:02.307Z,98893.30
2023-11-25T00:09:53.234Z,98900.86
2023-11-25T00:13:42.775Z,98911.42
2023-11-25T00:17:33.374Z,98913.95
2023-11-25T00:21:22.946Z,98925.35
2023-11-25T00:25:12.832Z,98929.63
2023-11-25T00:28:52.565Z,98928.90
2023-11-25T00:32:47.076Z,98936.35
2023-11-25T00:36:37.010Z,98940.98
2023-11-25T00:40:31.887Z,98950.96
2023-11-25T00:44:04.343Z,98972.62
2023-11-25T00:47:18.110Z,98976.58
2023-11-25T00:51:02.487Z,98975.97
2023-11-25T00:54:43.019Z,98972.13
2023-11-25T00:58:33.298Z,98976.23
2023-11-25T01:02:24.556Z,98981.13
2023-11-25T01:06:09.345Z,98986.09
2023-11-25T01:09:41.702Z,98993.89
2023-11-25T01:13:32.299Z,99003.59
2023-11-25T01:17:14.507Z,99003.02
2023-11-25T01:20:50.135Z,99004.02
2023-11-25T01:25:02.786Z,99017.15
2023-11-25T01:28:42.666Z,99019.42
2023-11-25T01:32:31.989Z,99024.09
2023-11-25T01:36:14.495Z,99034.94
2023-11-25T01:40:13.545Z,99033.13
2023-11-25T01:44:05.880Z,99034.27
2023-11-25T01:47:55.701Z,99038.11
2023-11-25T01:51:47.567Z,99041.48
2023-11-25T01:55:36.970Z,99046.99
2023-11-25T01:59:31.530Z,99044.58
2023-11-25T02:03:26.240Z,99050.58
2023-11-25T02:07:25.216Z,99054.23
2023-11-25T02:11:16.103Z,99060.74
2023-11-25T02:15:06.351Z,99060.39
2023-11-25T02:19:04.028Z,99068.80
2023-11-25T02:22:42.742Z,99071.92
2023-11-25T02:26:11.165Z,99074.86
2023-11-25T02:29:57.112Z,99084.27
2023-11-25T02:32:57.601Z,99086.43
2023-11-25T02:35:32.271Z,99095.75
2023-11-25T02:38:38.824Z,99095.94
2023-11-25T02:42:10.363Z,99099.30
2023-11-25T02:45:20.340Z,99105.02
2023-11-25T02:48:48.335Z,99104.89
2023-11-25T02:52:07.067Z,99109.96
2023-11-25T02:55:36.152Z,99120.13
2023-11-25T02:58:46.072Z,99127.36
2023-11-25T03:02:15.106Z,99126.55
2023-11-25T03:05:01.908Z,99128.41
2023-11-25T03:07:58.769Z,99128.28
2023-11-25T03:11:16.838Z,99128.01
2023-11-25T03:14:02.553Z,99128.58
2023-11-25T03:16:34.827Z,99125.64
2023-11-25T03:19:10.243Z,99127.31
2023-11-25T03:21:45.688Z,99132.11
2023-11-25T03:24:32.641Z,99136.55
2023-11-25T03:27:03.547Z,99145.48
2023-11-25T03:29:43.126Z,99149.77
2023-11-25T03:32:31.481Z,99149.41
2023-11-25T03:35:14.586Z,99157.21
2023-11-25T03:37:46.771Z,99154.98
2023-11-25T03:40:45.745Z,99164.48
2023-11-25T03:43:26.694Z,99170.42
2023-11-25T03:45:58.982Z,99167.58
2023-11-25T03:48:35.155Z,99166.45
2023-11-25T03:51:14.637Z,99171.59
2023-11-25T03:53:46.371Z,99175.31
2023-11-25T03:56:18.161Z,99182.64
2023-11-25T03:58:49.723Z,99184.10
2023-11-25T04:01:20.339Z,99184.87
2023-11-25T04:03:52.552Z,99186.44
2023-11-25T04:06:31.997Z,99187.60
2023-11-25T04:09:01.019Z,99184.40
2023-11-25T04:11:32.899Z,99185.23
2023-11-25T04:14:17.559Z,99190.27
2023-11-25T04:16:49.513Z,99188.61
2023-11-25T04:19:44.863Z,99194.77
2023-11-25T04:22:17.030Z,99197.09
2023-11-25T04:25:07.633Z,99199.14
2023-11-25T04:27:53.743Z,99203.27
2023-11-25T04:30:31.993Z,99203.73
2023-11-25T04:33:00.966Z,99208.97
2023-11-25T04:35:29.965Z,99215.40
2023-11-25T04:38:00.734Z,99218.51
2023-11-25T04:40:32.848Z,99218.69
2023-11-25T04:43:13.742Z,99224.45
2023-11-25T04:45:51.443Z,99219.95
2023-11-25T04:48:28.208Z,99222.38
2023-11-25T04:51:06.100Z,99220.88
2023-11-25T04:53:48.772Z,99227.48
2023-11-25T04:56:21.558Z,99229.77
2023-11-25T04:58:50.395Z,99230.98
2023-11-25T05:01:31.493Z,99236.94
2023-11-25T05:04:12.569Z,99244.61
2023-11-25T05:06:55.360Z,99246.00
2023-11-25T05:10:11.437Z,99246.64
2023-11-25T05:13:06.924Z,99255.70
2023-11-25T05:15:48.379Z,99259.87
2023-11-25T05:18:18.981Z,99264.33
2023-11-25T05:21:02.224Z,99271.39
2023-11-25T05:23:57.767Z,99271.34
2023-11-25T05:26:37.101Z,99272.52
2023-11-25T05:29:22.585Z,99270.64
2023-11-25T05:31:51.496Z,99280.37
2023-11-25T05:34:23.395Z,99283.08
2023-11-25T05:36:54.294Z,99288.84
2023-11-25T05:39:43.215Z,99292.92
2023-11-25T05:42:25.877Z,99297.92
2023-11-25T05:45:52.816Z,99300.88
2023-11-25T05:48:29.167Z,99301.57
2023-11-25T05:51:29.794Z,99309.27
2023-11-25T05:54:32.037Z,99317.07
2023-11-25T05:57:29.434Z,99323.49
2023-11-25T06:00:58.252Z,99329.98
2023-11-25T06:04:21.565Z,99338.39
2023-11-25T06:08:07.057Z,99348.80
2023-11-25T06:11:01.553Z,99349.54
2023-11-25T06:14:46.184Z,99359.00
2023-11-25T06:17:40.629Z,99360.63
2023-11-25T06:20:43.265Z,99363.22
2023-11-25T06:23:38.791Z,99362.69
2023-11-25T06:27:29.829Z,99366.85
2023-11-25T06:30:32.108Z,99373.46
2023-11-25T06:33:15.117Z,99378.87
2023-11-25T06:36:19.223Z,99380.20
2023-11-25T06:39:31.408Z,99385.88
2023-11-25T06:42:26.521Z,99387.13
2023-11-25T06:45:34.308Z,99390.48
2023-11-25T06:49:13.604Z,99396.90
2023-11-25T06:52:23.187Z,99403.17
2023-11-25T06:55:00.608Z,99405.73
2023-11-25T06:57:43.776Z,99410.34
2023-11-25T07:01:14.669Z,99415.75
2023-11-25T07:04:14.633Z,99413.30
2023-11-25T07:07:44.874Z,99421.47
2023-11-25T07:11:19.891Z,99428.77
2023-11-25T07:14:22.854Z,99430.77
2023-11-25T07:17:32.297Z,99437.65
2023-11-25T07:20:35.478Z,99445.79
2023-11-25T07:23:21.695Z,99444.88
2023-11-25T07:25:52.783Z,99444.05
2023-11-25T07:29:02.078Z,99442.99
2023-11-25T07:31:55.949Z,99450.27
2023-11-25T07:35:08.455Z,99452.27
2023-11-25T07:38:16.994Z,99452.64
2023-11-25T07:41:54.479Z,99453.23
2023-11-25T07:45:23.214Z,99456.38
2023-11-25T07:48:52.863Z,99456.52
2023-11-25T07:52:04.685Z,99459.38
2023-11-25T07:55:35.056Z,99460.16
2023-11-25T07:58:52.861Z,99466.30
2023-11-25T08:02:32.464Z,99472.06
2023-11-25T08:06:31.864Z,99474.52
2023-11-25T08:10:11.684Z,99475.52
2023-11-25T08:13:52.250Z,99485.64
2023-11-25T08:17:39.875Z,99490.73
2023-11-25T08:21:38.266Z,99493.85
2023-11-25T08:25:39.795Z,99506.90
2023-11-25T08:29:28.654Z,99506.82
2023-11-25T08:32:57.099Z,99515.73
2023-11-25T08:36:50.626Z,99516.41
2023-11-25T08:40:47.840Z,99521.73
2023-11-25T08:44:22.671Z,99528.69
2023-11-25T08:48:44.826Z,99531.77
2023-11-25T08:52:00.588Z,99535.32
2023-11-25T08:55:45.678Z,99541.33
2023-11-25T08:59:40.632Z,99538.55
2023-11-25T09:03:21.449Z,99542.63
2023-11-25T09:07:13.605Z,99549.02
2023-11-25T09:11:01.063Z,99550.26
2023-11-25T09:14:53.665Z,99551.48
2023-11-25T09:18:32.670Z,99549.62
2023-11-25T09:26:25.068Z,99557.91
2023-11-25T09:30:16.723Z,99563.46
2023-11-25T09:34:07.869Z,99568.86
2023-11-25T09:37:56.412Z,99578.23
2023-11-25T09:41:47.745Z,99583.42
2023-11-25T09:45:41.912Z,99582.95
2023-11-25T09:49:25.337Z,99585.77
2023-11-25T09:53:31.944Z,99587.77
2023-11-25T09:57:23.241Z,99588.36
2023-11-25T10:01:16.329Z,99596.80
2023-11-25T10:09:25.347Z,99594.75
2023-11-25T10:13:16.255Z,99598.41
2023-11-25T10:17:11.080Z,99601.80
2023-11-25T10:21:06.655Z,99601.41
2023-11-25T10:25:15.821Z,99597.73
2023-11-25T10:29:11.512Z,99598.17
2023-11-25T10:33:02.241Z,99593.44
2023-11-25T10:37:01.111Z,99588.34
2023-11-25T10:40:50.852Z,99589.45
2023-11-25T10:44:41.218Z,99592.34
2023-11-25T10:48:32.221Z,99590.89
2023-11-25T10:52:22.916Z,99593.05
2023-11-25T10:56:31.211Z,99589.50
2023-11-25T11:00:35.023Z,99579.16
2023-11-25T11:04:30.608Z,99575.02
2023-11-25T11:08:30.222Z,99574.36
2023-11-25T11:12:22.330Z,99577.30
2023-11-25T11:16:14.875Z,99578.27
2023-11-25T11:20:26.373Z,99583.26
2023-11-25T11:24:59.014Z,99581.31
2023-11-25T11:29:27.891Z,99576.59
2023-11-25T11:33:39.718Z,99580.56
2023-11-25T11:37:50.169Z,99582.27
2023-11-25T11:42:02.338Z,99583.13
2023-11-25T11:46:12.899Z,99575.73
2023-11-25T11:50:23.598Z,99572.84
2023-11-25T11:54:33.972Z,99571.72
2023-11-25T11:59:07.005Z,99572.52
2023-11-25T12:03:30.459Z,99570.95
2023-11-25T12:07:41.035Z,99557.95
2023-11-25T12:11:50.317Z,99563.48
2023-11-25T12:16:10.692Z,99560.16
2023-11-25T12:20:24.729Z,99559.80
2023-11-25T12:24:17.189Z,99558.48
2023-11-25T12:28:36.154Z,99556.86
2023-11-25T12:33:05.793Z,99555.57
2023-11-25T12:37:01.979Z,99560.02
2023-11-25T12:40:59.141Z,99557.59
2023-11-25T12:45:10.941Z,99559.05
2023-11-25T12:49:11.695Z,99560.07
2023-11-25T12:53:03.889Z,99563.25
2023-11-25T12:57:34.503Z,99554.77
2023-11-25T13:01:52.398Z,99557.10
2023-11-25T13:06:02.464Z,99556.14
2023-11-25T13:09:54.232Z,99560.54
2023-11-25T13:14:09.139Z,99563.36
2023-11-25T13:18:18.837Z,99564.61
2023-11-25T13:22:29.541Z,99560.01
2023-11-25T13:26:41.442Z,99562.81
2023-11-25T13:30:51.321Z,99564.67
2023-11-25T13:35:01.944Z,99567.61
2023-11-25T13:39:26.704Z,99569.67
2023-11-25T13:43:21.285Z,99574.38
2023-11-25T13:47:31.232Z,99574.95
2023-11-25T13:51:29.602Z,99573.08
2023-11-25T13:56:05.155Z,99573.90
2023-11-25T14:00:14.938Z,99574.36
2023-11-25T14:04:44.138Z,99579.29
2023-11-25T14:08:59.805Z,99575.48
2023-11-25T14:13:31.652Z,99573.63
2023-11-25T14:17:43.230Z,99575.02
2023-11-25T14:21:35.424Z,99574.64
2023-11-25T14:25:46.446Z,99576.88
2023-11-25T14:29:56.236Z,99575.73
2023-11-25T14:33:50.198Z,99580.04
2023-11-25T14:38:08.800Z,99581.35
2023-11-25T14:42:01.953Z,99577.88
2023-11-25T14:45:53.818Z,99580.11
2023-11-25T14:50:23.329Z,99582.31
2023-11-25T14:54:52.792Z,99584.63
2023-11-25T14:59:04.757Z,99579.64
2023-11-25T15:03:14.873Z,99588.52
2023-11-25T15:07:54.453Z,99591.73
2023-11-25T15:12:05.628Z,99594.79
2023-11-25T15:16:35.828Z,99596.76
2023-11-25T15:21:10.131Z,99601.63
2023-11-25T15:25:40.049Z,99594.88
2023-11-25T15:30:09.362Z,99595.98
2023-11-25T15:34:40.222Z,99596.29
2023-11-25T15:38:50.310Z,99600.13
2023-11-25T15:43:04.028Z,99601.79
2023-11-25T15:47:34.395Z,99598.45
2023-11-25T15:51:53.222Z,99601.02
2023-11-25T15:55:43.599Z,99597.75
2023-11-25T15:59:53.270Z,99594.20
2023-11-25T16:04:22.774Z,99593.11
2023-11-25T16:08:32.780Z,99595.21
2023-11-25T16:12:33.690Z,99596.45
2023-11-25T16:19:23.659Z,99596.98
2023-11-25T16:22:00.787Z,99597.56
2023-11-25T16:24:28.153Z,99600.02
2023-11-25T16:26:55.141Z,99600.19
2023-11-25T16:29:24.480Z,99600.42
2023-11-25T16:31:52.150Z,99600.73
2023-11-25T16:34:19.899Z,99603.11
2023-11-25T16:36:47.646Z,99603.02
2023-11-25T16:41:50.021Z,99602.64
2023-11-25T16:44:20.591Z,99599.39
2023-11-25T16:46:48.157Z,99600.92
2023-11-25T16:49:16.554Z,99603.66
2023-11-25T16:51:44.006Z,99602.34
2023-11-25T16:54:16.156Z,99612.81
2023-11-25T16:56:45.926Z,99618.50
2023-11-25T16:59:17.618Z,99617.50
2023-11-25T17:01:45.584Z,99623.15
2023-11-25T17:04:13.691Z,99622.63
2023-11-25T17:06:47.532Z,99623.71
2023-11-25T17:09:14.989Z,99627.05
2023-11-25T17:11:42.395Z,99628.50
2023-11-25T17:14:12.401Z,99624.63
2023-11-25T17:16:47.414Z,99626.44
2023-11-25T17:19:21.041Z,99631.02
2023-11-25T17:21:51.494Z,99638.98
2023-11-25T17:24:52.079Z,99640.19
2023-11-25T17:27:20.677Z,99641.60
2023-11-25T17:29:48.026Z,99639.90
2023-11-25T17:32:27.430Z,99643.23
2023-11-25T17:35:46.508Z,99641.86
2023-11-25T17:38:42.817Z,99639.37
2023-11-25T17:41:32.730Z,99644.32
2023-11-25T17:44:04.706Z,99660.80
2023-11-25T17:47:03.077Z,99666.80
2023-11-25T17:49:55.886Z,99668.65
2023-11-25T17:52:43.787Z,99669.92
2023-11-25T17:55:41.605Z,99670.21
2023-11-25T17:58:12.498Z,99669.11
2023-11-25T18:00:59.973Z,99670.64
2023-11-25T18:03:38.639Z,99676.09
2023-11-25T18:06:13.616Z,99677.05
2023-11-25T18:08:46.818Z,99673.59
2023-11-25T18:11:33.205Z,99679.89
2023-11-25T18:14:03.826Z,99680.15
2023-11-25T18:16:54.663Z,99687.48
2023-11-25T18:19:45.504Z,99694.26
2023-11-25T18:22:16.051Z,99703.68
2023-11-25T18:24:52.443Z,99705.85
2023-11-25T18:27:32.079Z,99704.63
2023-11-25T18:30:01.855Z,99705.91
2023-11-25T18:32:38.265Z,99706.62
2023-11-25T18:35:11.384Z,99714.73
2023-11-25T18:37:39.209Z,99714.58
2023-11-25T18:40:07.778Z,99718.04
2023-11-25T18:42:35.325Z,99718.39
2023-11-25T18:45:02.559Z,99724.80
2023-11-25T18:47:39.227Z,99722.23
2023-11-25T18:50:10.099Z,99723.31
2023-11-25T18:52:43.801Z,99727.40
2023-11-25T18:55:11.601Z,99731.20
2023-11-25T18:58:01.932Z,99735.02
2023-11-25T19:00:29.263Z,99735.59
2023-11-25T19:03:30.243Z,99734.55
2023-11-25T19:06:03.623Z,99739.39
2023-11-25T19:08:30.880Z,99740.31
2023-11-25T19:11:01.101Z,99741.08
2023-11-25T19:13:36.427Z,99752.05
2023-11-25T19:16:04.464Z,99754.79
2023-11-25T19:18:51.740Z,99757.20
2023-11-25T19:21:39.834Z,99760.05
2023-11-25T19:24:07.741Z,99763.95
2023-11-25T19:26:48.884Z,99759.83
2023-11-25T19:29:18.945Z,99761.22
2023-11-25T19:31:48.610Z,99760.95
2023-11-25T19:34:26.346Z,99760.41
2023-11-25T19:36:57.033Z,99762.60
2023-11-25T19:39:46.634Z,99764.46
2023-11-25T19:42:16.563Z,99770.68
2023-11-25T19:44:58.460Z,99769.14
2023-11-25T19:47:25.852Z,99775.34
2023-11-25T19:50:22.335Z,99779.96
2023-11-25T19:52:53.648Z,99782.23
2023-11-25T19:56:14.340Z,99782.70
2023-11-25T19:58:42.022Z,99787.45
2023-11-25T20:01:09.786Z,99793.77
2023-11-25T20:03:37.394Z,99790.48
2023-11-25T20:06:07.471Z,99796.98
2023-11-25T20:08:34.603Z,99798.69
2023-11-25T20:11:03.455Z,99801.22
2023-11-25T20:13:33.803Z,99798.85
2023-11-25T20:16:00.984Z,99800.77
2023-11-25T20:18:37.765Z,99803.98
2023-11-25T20:21:05.372Z,99800.71
2023-11-25T20:23:41.517Z,99804.07
2023-11-25T20:26:08.954Z,99810.30
2023-11-25T20:28:36.171Z,99815.17
2023-11-25T20:31:04.012Z,99819.59
2023-11-25T20:33:36.461Z,99816.50
2023-11-25T20:36:18.593Z,99818.84
2023-11-25T20:38:53.362Z,99827.97
2023-11-25T20:41:20.641Z,99828.96
2023-11-25T20:43:47.997Z,99832.89
2023-11-25T20:46:15.642Z,99828.58
2023-11-25T20:48:44.009Z,99833.73
2023-11-25T20:51:31.225Z,99839.16
2023-11-25T20:54:19.416Z,99840.80
2023-11-25T20:56:49.805Z,99842.67
2023-11-25T20:59:41.261Z,99841.80
2023-11-25T21:02:08.810Z,99845.88
2023-11-25T21:04:36.178Z,99847.70
2023-11-25T21:07:03.470Z,99854.39
2023-11-25T21:09:32.933Z,99861.73
2023-11-25T21:12:00.058Z,99861.11
2023-11-25T21:14:28.730Z,99866.90
2023-11-25T21:16:59.044Z,99869.71
2023-11-25T21:19:26.902Z,99875.95
2023-11-25T21:21:54.251Z,99879.73
2023-11-25T21:24:21.819Z,99875.13
2023-11-25T21:26:49.248Z,99878.23
2023-11-25T21:29:20.085Z,99877.87
2023-11-25T21:31:48.018Z,99880.34
2023-11-25T21:34:18.112Z,99881.98
2023-11-25T21:36:46.142Z,99885.75
2023-11-25T21:39:14.964Z,99891.55
2023-11-25T21:41:43.373Z,99888.15
2023-11-25T21:44:10.683Z,99886.60
2023-11-25T21:46:40.485Z,99888.42
2023-11-25T21:49:07.777Z,99893.27
2023-11-25T21:51:35.161Z,99900.11
2023-11-25T21:54:02.890Z,99899.92
2023-11-25T21:56:30.236Z,99903.92
2023-11-25T21:58:57.615Z,99904.96
2023-11-25T22:01:27.687Z,99913.54
2023-11-25T22:04:00.722Z,99916.38
2023-11-25T22:06:28.441Z,99917.55
2023-11-25T22:08:58.708Z,99917.17
2023-11-25T22:11:27.414Z,99916.90
2023-11-25T22:13:54.818Z,99921.51
2023-11-25T22:16:29.538Z,99925.94
2023-11-25T22:18:57.814Z,99925.33
2023-11-25T22:21:29.829Z,99922.17
2023-11-25T22:23:57.392Z,99928.03
2023-11-25T22:26:33.889Z,99931.54
2023-11-25T22:29:03.837Z,99935.48
2023-11-25T22:31:31.500Z,99936.48
2023-11-25T22:34:02.077Z,99942.73
2023-11-25T22:36:31.891Z,99946.52
2023-11-25T22:39:00.220Z,99943.64
2023-11-25T22:41:27.326Z,99945.86
2023-11-25T22:43:54.736Z,99954.78
2023-11-25T22:46:23.544Z,99955.91
2023-11-25T22:48:51.848Z,99961.36
2023-11-25T22:51:23.474Z,99960.43
2023-11-25T22:53:51.562Z,99955.92
2023-11-25T22:56:19.062Z,99957.67
2023-11-25T22:58:47.075Z,99955.85
2023-11-25T23:01:16.410Z,99958.74
2023-11-25T23:03:44.645Z,99959.93
2023-11-25T23:06:12.606Z,99962.05
2023-11-25T23:08:41.819Z,99963.22
2023-11-25T23:11:10.078Z,99960.30
2023-11-25T23:13:37.517Z,99960.42
2023-11-25T23:16:05.043Z,99963.00
2023-11-25T23:18:32.193Z,99962.80
2023-11-25T23:20:59.812Z,99963.73
2023-11-25T23:23:34.594Z,99962.13
2023-11-25T23:26:07.800Z,99963.76
2023-11-25T23:28:34.917Z,99962.26
2023-11-25T23:31:02.286Z,99966.56
2023-11-25T23:33:29.496Z,99968.60
2023-11-25T23:35:57.102Z,99965.81
2023-11-25T23:38:24.327Z,99968.95
2023-11-25T23:40:52.392Z,99973.38
2023-11-25T23:43:20.204Z,99972.92
2023-11-25T23:45:47.772Z,99976.55
2023-11-25T23:48:14.814Z,99978.36
2023-11-25T23:50:42.196Z,99976.61
2023-11-25T23:53:09.434Z,99982.20
2023-11-25T23:55:36.625Z,99983.01
2023-11-25T23:58:04.945Z,99986.09
